WetterOnline ( https://www.wetteronline.de )

Wetter aktuell Panten

Aktuelles Wetter: Lübeck/Blankensee (15m)

6-stündlich | Neueste Meldungen
Ortszeit Temperatur Wetter
So, 17.01. 13:00 -0.9° C bedeckt
So, 17.01. 7:00 -6.2° C bedeckt
So, 17.01. 1:00 -5.2° C bedeckt
Sa, 16.01. 19:00 -4.4° C wolkig
Sa, 16.01. 13:00 -0.4° C bewölkt
Sa, 16.01. 7:00 -1.4° C bedeckt
Sa, 16.01. 1:00 -1.3° C bedeckt
Fr, 15.01. 19:00 -1.1° C bedeckt
Ortszeit Temperatur Wetter
So, 17.01. 16:30 -1.6° C leicht bewölkt
So, 17.01. 16:20 -1.6° C leicht bewölkt
So, 17.01. 16:10 -1.2° C wolkig
So, 17.01. 16:00 -1.2° C fast wolkenlos
So, 17.01. 15:50 -1.2° C fast wolkenlos
So, 17.01. 15:40 -0.9° C wolkenlos
So, 17.01. 15:30 -0.6° C wolkenlos
So, 17.01. 15:00 -0.3° C leicht bewölkt
So, 17.01. 14:30 -0.4° C bedeckt
So, 17.01. 14:00 -0.4° C wolkig
So, 17.01. 13:30 -0.5° C bedeckt
Ortszeit Relative Feuchte Sichtweite
So, 17.01. 13:00 74% 35 km
So, 17.01. 7:00 93% 12 km
So, 17.01. 1:00 91% 22 km
Sa, 16.01. 19:00 83% 30 km
Sa, 16.01. 13:00 69% 35 km
Sa, 16.01. 7:00 75% 40 km
Sa, 16.01. 1:00 73% 45 km
Fr, 15.01. 19:00 72% 65 km
Ortszeit Relative Feuchte Sichtweite
So, 17.01. 16:30 76% 40 km
So, 17.01. 16:20 76% -
So, 17.01. 16:10 74% -
So, 17.01. 16:00 74% 40 km
So, 17.01. 15:50 74% -
So, 17.01. 15:40 73% -
So, 17.01. 15:30 72% 35 km
So, 17.01. 15:00 70% 35 km
So, 17.01. 14:30 73% 35 km
So, 17.01. 14:00 73% 30 km
So, 17.01. 13:30 72% 35 km
Ortszeit Niederschlagsmenge Niederschlagsart
So, 17.01. 13:00 0.0 l/m2 in 6 Std. -
So, 17.01. 7:00 0.0 l/m2 in 12 Std. -
So, 17.01. 1:00 0.0 l/m2 in 6 Std. -
Sa, 16.01. 19:00 0.0 l/m2 in 12 Std. -
Sa, 16.01. 13:00 0.0 l/m2 in 6 Std. -
Sa, 16.01. 7:00 0.1 l/m2 in 12 Std. Schnee
Sa, 16.01. 1:00 0.1 l/m2 in 6 Std. Schnee
Fr, 15.01. 19:00 0.1 l/m2 in 12 Std. Schnee, Sprühregen
Ortszeit Niederschlagsmenge Niederschlagsart
So, 17.01. 16:30 0.0 l/m2 in 1 Std. -
So, 17.01. 16:20 keine Meldung -
So, 17.01. 16:10 keine Meldung -
So, 17.01. 16:00 0.0 l/m2 in 1 Std. -
So, 17.01. 15:50 keine Meldung -
So, 17.01. 15:40 keine Meldung -
So, 17.01. 15:30 0.0 l/m2 in 1 Std. -
So, 17.01. 15:00 0.0 l/m2 in 1 Std. -
So, 17.01. 14:30 0.0 l/m2 in 1 Std. -
So, 17.01. 14:00 0.0 l/m2 in 1 Std. -
So, 17.01. 13:30 0.0 l/m2 in 1 Std. -
Ortszeit Stärke Spitze Richtung
km/h Bft. km/h Grad Sektor
So, 17.01. 13:00 7 2 18 170° S
So, 17.01. 7:00 4 1 11 80° O
So, 17.01. 1:00 4 1 11 150° SO
Sa, 16.01. 19:00 4 1 18 140° SO
Sa, 16.01. 13:00 7 2 18 260° W
Sa, 16.01. 7:00 9 2 22 270° W
Sa, 16.01. 1:00 14 3 25 280° W
Fr, 15.01. 19:00 4 1 32 360° N
Ortszeit Stärke Spitze Richtung
km/h Bft. km/h Grad Sektor
So, 17.01. 16:30 6 1 11 150° SO
So, 17.01. 16:20 6 1 - 150° SO
So, 17.01. 16:10 6 1 - 150° SO
So, 17.01. 16:00 7 2 19 150° SO
So, 17.01. 15:50 7 2 - 150° SO
So, 17.01. 15:40 9 2 - 150° SO
So, 17.01. 15:30 7 2 18 160° S
So, 17.01. 15:00 7 2 17 160° S
So, 17.01. 14:30 7 2 18 150° SO
So, 17.01. 14:00 9 2 17 150° SO
So, 17.01. 13:30 7 2 14 170° S
Ortszeit Untergrenze Bedeckung Gattung
total tief tief mittel hoch
So, 17.01. 13:00 3600 m 8/8 8/8 - - -
So, 17.01. 7:00 4200 m 8/8 8/8 - - -
So, 17.01. 1:00 6300 m 8/8 8/8 - - -
Sa, 16.01. 19:00 8100 m 8/8 0/8 - - -
Sa, 16.01. 13:00 900 m 7/8 7/8 - - -
Sa, 16.01. 7:00 930 m 8/8 8/8 - - -
Sa, 16.01. 1:00 930 m 8/8 8/8 - - -
Fr, 15.01. 19:00 870 m 8/8 8/8 - - -
Ortszeit Bedeckungsgrad in Achtel und Wolkenuntergrenze
So, 17.01. 16:30 3(5100m)
So, 17.01. 16:20 3(5100m)
So, 17.01. 16:10 5(5100m)
So, 17.01. 16:00 1(5100m)
So, 17.01. 15:50 1(5100m)
So, 17.01. 15:40 keine Wolken
So, 17.01. 15:30 keine Wolken
So, 17.01. 15:00 2(4500m)
So, 17.01. 14:30 8(4200m) 8(6900m)
So, 17.01. 14:00 7(3900m) 8(4800m) 8(6900m)
So, 17.01. 13:30 8(3600m) 8(4800m)
Ortszeit Luftdruck NN (hPa) Tendenz (hPa in 3 Std.)
So, 17.01. 13:00 1020 + 0,6
So, 17.01. 7:00 1018 - 0,1
So, 17.01. 1:00 1019 - 1,0
Sa, 16.01. 19:00 1021 - 1,4
Sa, 16.01. 13:00 1024 - 1,5
Sa, 16.01. 7:00 1026 - 0,7
Sa, 16.01. 1:00 1028 - 0,4
Fr, 15.01. 19:00 1028 + 0,7
Ortszeit Luftdruck NN (hPa) Tendenz (hPa in 3 Std.)
So, 17.01. 16:30 1020 + 0,5
So, 17.01. 16:20 1020 keine Meldung
So, 17.01. 16:10 1020 keine Meldung
So, 17.01. 16:00 1020 + 0,2
So, 17.01. 15:50 1020 keine Meldung
So, 17.01. 15:40 1020 keine Meldung
So, 17.01. 15:30 1020 - 0,1
So, 17.01. 15:00 1020 - 0,2
So, 17.01. 14:30 1019 - 0,4
So, 17.01. 14:00 1019 - 0,3
So, 17.01. 13:30 1020 + 0,1
Ortszeit Schneehöhe (cm)
So, 17.01. 13:00 0
So, 17.01. 7:00 0
So, 17.01. 1:00 0
Sa, 16.01. 19:00 0
Sa, 16.01. 13:00 0
Sa, 16.01. 7:00 0
Sa, 16.01. 1:00 0
Fr, 15.01. 19:00 0
Ortszeit Schneehöhe (cm)
So, 17.01. 16:30 0
So, 17.01. 16:20 0
So, 17.01. 16:10 0
So, 17.01. 16:00 0
So, 17.01. 15:50 0
So, 17.01. 15:40 0
So, 17.01. 15:30 0
So, 17.01. 15:00 0
So, 17.01. 14:30 0
So, 17.01. 14:00 0
So, 17.01. 13:30 0
Link zu dieser Seite / Seite empfehlen

Das Wetter in ...